createdAt,value
2018-02-04T00:00:00.486Z,14.90
2018-02-04T00:02:28.328Z,14.40
2018-02-04T00:04:57.296Z,16.77
2018-02-04T00:07:26.912Z,15.97
2018-02-04T00:09:54.896Z,16.20
2018-02-04T00:12:23.994Z,15.43
2018-02-04T00:14:52.143Z,14.77
2018-02-04T00:17:20.168Z,13.43
2018-02-04T00:19:48.461Z,13.67
2018-02-04T00:22:25.069Z,13.03
2018-02-04T00:24:53.746Z,14.87
2018-02-04T00:27:22.846Z,12.60
2018-02-04T00:29:51.653Z,14.23
2018-02-04T00:32:19.705Z,15.53
2018-02-04T00:34:47.923Z,13.87
2018-02-04T00:37:16.157Z,13.70
2018-02-04T00:39:43.777Z,13.23
2018-02-04T00:42:12.861Z,13.33
2018-02-04T00:44:41.293Z,12.10
2018-02-04T00:47:09.192Z,12.93
2018-02-04T00:49:37.749Z,13.33
2018-02-04T00:52:05.853Z,13.40
2018-02-04T00:54:33.946Z,12.60
2018-02-04T00:57:01.847Z,13.17
2018-02-04T00:59:29.831Z,13.30
2018-02-04T01:02:08.193Z,14.13
2018-02-04T01:04:36.783Z,12.10
2018-02-04T01:07:04.993Z,13.23
2018-02-04T01:09:43.612Z,10.90
2018-02-04T01:12:11.481Z,11.80
2018-02-04T01:14:39.774Z,12.40
2018-02-04T01:17:07.590Z,13.23
2018-02-04T01:19:35.559Z,12.37
2018-02-04T01:22:13.539Z,12.20
2018-02-04T01:24:41.379Z,13.87
2018-02-04T01:27:09.323Z,11.30
2018-02-04T01:29:37.338Z,12.50
2018-02-04T01:32:05.239Z,11.73
2018-02-04T01:34:34.710Z,11.27
2018-02-04T01:37:02.823Z,11.90
2018-02-04T01:39:30.733Z,11.90
2018-02-04T01:41:58.637Z,11.10
2018-02-04T01:44:26.855Z,12.53
2018-02-04T01:46:55.052Z,11.50
2018-02-04T01:49:33.677Z,11.90
2018-02-04T01:52:01.613Z,11.47
2018-02-04T01:54:29.718Z,10.67
2018-02-04T01:57:08.217Z,12.23
2018-02-04T01:59:36.424Z,11.63
2018-02-04T02:02:04.808Z,12.40
2018-02-04T02:04:32.957Z,11.87
2018-02-04T02:07:01.130Z,11.80
2018-02-04T02:09:30.002Z,13.07
2018-02-04T02:11:59.746Z,11.10
2018-02-04T02:14:27.705Z,11.80
2018-02-04T02:16:55.677Z,10.87
2018-02-04T02:19:24.744Z,11.90
2018-02-04T02:21:52.621Z,11.80
2018-02-04T02:24:21.383Z,10.70
2018-02-04T02:26:51.948Z,10.80
2018-02-04T02:29:20.221Z,10.53
2018-02-04T02:31:57.910Z,10.40
2018-02-04T02:34:25.828Z,10.17
2018-02-04T02:37:03.749Z,11.10
2018-02-04T02:39:41.808Z,11.80
2018-02-04T02:42:10.737Z,10.67
2018-02-04T02:44:38.414Z,12.10
2018-02-04T02:47:07.310Z,11.00
2018-02-04T02:49:35.285Z,11.00
2018-02-04T02:52:03.296Z,11.73
2018-02-04T02:54:32.178Z,12.30
2018-02-04T02:57:00.254Z,11.23
2018-02-04T02:59:38.868Z,10.27
2018-02-04T03:02:06.790Z,11.40
2018-02-04T03:04:34.725Z,11.07
2018-02-04T03:07:02.851Z,11.40
2018-02-04T03:09:31.026Z,11.13
2018-02-04T03:11:59.286Z,10.93
2018-02-04T03:14:27.152Z,10.40
2018-02-04T03:16:55.030Z,11.13
2018-02-04T03:19:23.079Z,11.03
2018-02-04T03:21:51.997Z,11.27
2018-02-04T03:24:21.042Z,10.53
2018-02-04T03:26:50.096Z,10.57
2018-02-04T03:29:17.854Z,11.40
2018-02-04T03:31:45.784Z,12.43
2018-02-04T03:34:13.783Z,11.37
2018-02-04T03:36:43.002Z,12.27
2018-02-04T03:39:11.821Z,12.73
2018-02-04T03:41:39.775Z,14.40
2018-02-04T03:44:08.765Z,12.50
2018-02-04T03:46:36.678Z,12.13
2018-02-04T03:49:05.483Z,12.13
2018-02-04T03:51:33.589Z,10.60
2018-02-04T03:54:01.559Z,12.27
2018-02-04T03:56:29.564Z,12.10
2018-02-04T03:58:58.148Z,12.80
2018-02-04T04:01:26.929Z,12.80
2018-02-04T04:03:54.860Z,12.57
2018-02-04T04:06:23.479Z,12.53
2018-02-04T04:08:51.601Z,12.30
2018-02-04T04:11:20.902Z,13.07
2018-02-04T04:13:48.860Z,12.17
2018-02-04T04:16:16.515Z,11.63
2018-02-04T04:18:45.398Z,12.43
2018-02-04T04:21:13.322Z,12.40
2018-02-04T04:23:52.063Z,12.33
2018-02-04T04:26:21.312Z,14.10
2018-02-04T04:28:50.101Z,13.50
2018-02-04T04:31:19.003Z,12.40
2018-02-04T04:33:56.998Z,13.10
2018-02-04T04:36:24.964Z,12.53
2018-02-04T04:38:53.823Z,11.77
2018-02-04T04:41:24.761Z,11.53
2018-02-04T04:43:52.748Z,13.50
2018-02-04T04:46:20.677Z,12.10
2018-02-04T04:48:58.309Z,12.10
2018-02-04T04:51:25.892Z,13.97
2018-02-04T04:53:54.688Z,11.97
2018-02-04T04:56:33.482Z,12.17
2018-02-04T04:59:01.403Z,12.40
2018-02-04T05:01:29.275Z,11.93
2018-02-04T05:03:57.258Z,13.07
2018-02-04T05:06:25.300Z,12.00
2018-02-04T05:08:53.290Z,13.37
2018-02-04T05:11:21.432Z,13.43
2018-02-04T05:13:49.547Z,12.93
2018-02-04T05:16:18.640Z,12.13
2018-02-04T05:18:47.290Z,13.10
2018-02-04T05:21:15.354Z,12.97
2018-02-04T05:23:44.360Z,13.97
2018-02-04T05:26:13.163Z,12.93
2018-02-04T05:28:41.144Z,13.77
2018-02-04T05:31:09.075Z,14.17
2018-02-04T05:33:36.825Z,14.40
2018-02-04T05:36:04.645Z,13.10
2018-02-04T05:38:32.466Z,12.37
2018-02-04T05:41:00.463Z,13.47
2018-02-04T05:43:28.390Z,14.63
2018-02-04T05:46:06.928Z,15.20
2018-02-04T05:48:36.480Z,15.20
2018-02-04T05:51:05.317Z,15.97
2018-02-04T05:53:43.175Z,16.60
2018-02-04T05:56:21.110Z,15.30
2018-02-04T05:58:49.576Z,16.10
2018-02-04T06:01:17.732Z,16.90
2018-02-04T06:03:45.715Z,14.83
2018-02-04T06:06:15.283Z,17.83
2018-02-04T06:08:43.307Z,16.97
2018-02-04T06:11:12.549Z,20.23
2018-02-04T06:13:40.885Z,18.00
2018-02-04T06:16:09.731Z,17.87
2018-02-04T06:18:38.455Z,19.63
2018-02-04T06:21:16.979Z,18.83
2018-02-04T06:23:45.089Z,17.77
2018-02-04T06:26:13.442Z,18.23
2018-02-04T06:28:41.161Z,16.97
2018-02-04T06:31:09.804Z,20.27
2018-02-04T06:33:37.776Z,18.87
2018-02-04T06:36:05.638Z,18.80
2018-02-04T06:38:33.555Z,18.33
2018-02-04T06:41:02.102Z,18.07
2018-02-04T06:43:30.082Z,17.67
2018-02-04T06:45:58.870Z,18.90
2018-02-04T06:48:27.685Z,19.00
2018-02-04T06:50:55.549Z,20.13
2018-02-04T06:53:23.831Z,18.70
2018-02-04T06:55:51.657Z,18.47
2018-02-04T06:58:20.524Z,18.37
2018-02-04T07:00:48.384Z,18.83
2018-02-04T07:03:17.102Z,19.67
2018-02-04T07:05:46.096Z,19.87
2018-02-04T07:08:14.519Z,19.37
2018-02-04T07:10:42.440Z,20.73
2018-02-04T07:13:11.138Z,20.60
2018-02-04T07:15:39.105Z,20.63
2018-02-04T07:18:06.816Z,21.20
2018-02-04T07:20:34.713Z,18.90
2018-02-04T07:23:12.514Z,20.37
2018-02-04T07:25:40.766Z,22.30
2018-02-04T07:28:08.600Z,20.33
2018-02-04T07:30:36.685Z,18.73
2018-02-04T07:33:04.640Z,21.27
2018-02-04T07:35:32.544Z,21.20
2018-02-04T07:38:01.403Z,23.17
2018-02-04T07:40:29.419Z,22.20
2018-02-04T07:43:08.281Z,24.03
2018-02-04T07:45:36.187Z,20.70
2018-02-04T07:48:04.137Z,22.10
2018-02-04T07:50:32.684Z,23.43
2018-02-04T07:53:00.784Z,22.93
2018-02-04T07:55:30.567Z,24.03
2018-02-04T07:57:58.737Z,24.53
2018-02-04T08:00:27.176Z,20.53
2018-02-04T08:02:55.217Z,21.40
2018-02-04T08:05:23.902Z,23.37
2018-02-04T08:07:52.651Z,23.67
2018-02-04T08:10:20.593Z,24.47
2018-02-04T08:12:48.554Z,23.60
2018-02-04T08:15:16.847Z,23.17
2018-02-04T08:17:45.328Z,24.30
2018-02-04T08:20:13.295Z,23.07
2018-02-04T08:22:41.214Z,21.30
2018-02-04T08:25:09.030Z,19.90
2018-02-04T08:27:36.881Z,20.70
2018-02-04T08:30:05.278Z,20.77
2018-02-04T08:32:33.101Z,19.17
2018-02-04T08:35:01.826Z,21.43
2018-02-04T08:37:29.999Z,22.83
2018-02-04T08:39:58.771Z,23.30
2018-02-04T08:42:27.849Z,23.47
2018-02-04T08:44:55.582Z,19.03
2018-02-04T08:47:23.336Z,21.97
2018-02-04T08:49:51.328Z,20.67
2018-02-04T08:52:19.347Z,22.17
2018-02-04T08:54:48.122Z,21.00
2018-02-04T08:57:15.957Z,20.20
2018-02-04T08:59:54.074Z,20.97
2018-02-04T09:02:22.153Z,22.37
2018-02-04T09:04:50.418Z,20.60
2018-02-04T09:07:18.892Z,19.63
2018-02-04T09:09:48.136Z,25.53
2018-02-04T09:12:17.067Z,18.50
2018-02-04T09:14:45.230Z,17.73
2018-02-04T09:17:14.027Z,18.07
2018-02-04T09:19:53.587Z,18.80
2018-02-04T09:22:21.850Z,18.20
2018-02-04T09:24:50.100Z,19.10
2018-02-04T09:27:18.049Z,20.90
2018-02-04T09:29:45.933Z,23.13
2018-02-04T09:32:14.148Z,19.47
2018-02-04T09:34:42.874Z,19.60
2018-02-04T09:37:11.680Z,22.27
2018-02-04T09:39:39.580Z,21.10
2018-02-04T09:42:08.636Z,20.40
2018-02-04T09:44:36.467Z,18.93
2018-02-04T09:47:04.677Z,20.37
2018-02-04T09:49:33.267Z,42.87
2018-02-04T09:52:01.931Z,42.13
2018-02-04T09:54:29.890Z,18.63
2018-02-04T09:57:08.342Z,17.23
2018-02-04T09:59:37.182Z,19.63
2018-02-04T10:02:04.910Z,19.00
2018-02-04T10:04:33.680Z,21.60
2018-02-04T10:07:01.633Z,22.07
2018-02-04T10:09:30.084Z,24.13
2018-02-04T10:11:58.612Z,19.13
2018-02-04T10:14:26.208Z,21.40
2018-02-04T10:16:53.797Z,22.57
2018-02-04T10:19:21.431Z,23.10
2018-02-04T10:21:49.043Z,21.87
2018-02-04T10:24:17.522Z,19.27
2018-02-04T10:26:45.899Z,18.53
2018-02-04T10:29:14.295Z,16.80
2018-02-04T10:31:41.914Z,19.10
2018-02-04T10:34:09.755Z,15.90
2018-02-04T10:36:37.343Z,19.50
2018-02-04T10:39:04.917Z,17.87
2018-02-04T10:41:33.310Z,18.27
2018-02-04T10:44:00.910Z,17.70
2018-02-04T10:46:28.522Z,16.60
2018-02-04T10:48:56.927Z,15.10
2018-02-04T10:51:30.309Z,16.40
2018-02-04T10:53:57.871Z,16.50
2018-02-04T10:56:25.430Z,16.23
2018-02-04T10:58:53.069Z,14.00
2018-02-04T11:01:21.402Z,14.13
2018-02-04T11:03:48.957Z,16.13
2018-02-04T11:06:16.542Z,17.80
2018-02-04T11:08:44.536Z,16.87
2018-02-04T11:11:12.106Z,16.97
2018-02-04T11:13:39.680Z,16.33
2018-02-04T11:16:07.294Z,14.70
2018-02-04T11:18:35.633Z,14.60
2018-02-04T11:21:04.186Z,14.20
2018-02-04T11:23:31.772Z,14.57
2018-02-04T11:25:59.464Z,13.90
2018-02-04T11:28:27.826Z,13.70
2018-02-04T11:30:55.431Z,13.77
2018-02-04T11:33:23.011Z,14.53
2018-02-04T11:35:50.608Z,12.40
2018-02-04T11:38:18.188Z,13.03
2018-02-04T11:40:46.535Z,13.70
2018-02-04T11:43:14.112Z,12.87
2018-02-04T11:45:42.535Z,10.23
2018-02-04T11:48:10.094Z,13.60
2018-02-04T11:50:37.690Z,11.30
2018-02-04T11:53:05.263Z,8.60
2018-02-04T11:55:33.590Z,8.70
2018-02-04T11:58:01.162Z,8.03
2018-02-04T12:00:28.705Z,7.30
2018-02-04T12:02:56.509Z,7.77
2018-02-04T12:05:24.082Z,9.00
2018-02-04T12:07:52.415Z,8.70
2018-02-04T12:10:20.104Z,8.63
2018-02-04T12:12:48.487Z,9.30
2018-02-04T12:15:16.153Z,7.70
2018-02-04T12:17:44.504Z,7.60
2018-02-04T12:20:12.060Z,8.83
2018-02-04T12:22:39.660Z,8.83
2018-02-04T12:25:08.918Z,9.10
2018-02-04T12:27:38.268Z,8.47
2018-02-04T12:30:05.871Z,7.60
2018-02-04T12:32:33.447Z,9.33
2018-02-04T12:35:01.033Z,10.53
2018-02-04T12:37:29.384Z,9.80
2018-02-04T12:39:57.041Z,8.53
2018-02-04T12:42:24.661Z,6.27
2018-02-04T12:44:52.273Z,7.13
2018-02-04T12:47:20.615Z,5.60
2018-02-04T12:49:48.192Z,5.57
2018-02-04T12:52:15.802Z,8.90
2018-02-04T12:54:43.391Z,7.03
2018-02-04T12:57:10.977Z,6.33
2018-02-04T12:59:38.563Z,7.17
2018-02-04T13:02:06.170Z,7.33
2018-02-04T13:04:33.750Z,6.80
2018-02-04T13:07:01.341Z,6.57
2018-02-04T13:09:29.710Z,6.33
2018-02-04T13:11:58.107Z,8.10
2018-02-04T13:14:25.722Z,6.07
2018-02-04T13:16:53.309Z,6.20
2018-02-04T13:19:20.943Z,6.07
2018-02-04T13:21:48.542Z,6.50
2018-02-04T13:24:16.334Z,6.40
2018-02-04T13:26:43.898Z,7.47
2018-02-04T13:29:11.481Z,7.30
2018-02-04T13:31:39.045Z,7.10
2018-02-04T13:34:07.371Z,8.97
2018-02-04T13:36:34.952Z,8.33
2018-02-04T13:39:02.576Z,9.53
2018-02-04T13:41:30.138Z,8.77
2018-02-04T13:43:57.712Z,8.57
2018-02-04T13:46:25.259Z,8.50
2018-02-04T13:48:52.858Z,7.60
2018-02-04T13:51:20.431Z,9.20
2018-02-04T13:53:48.886Z,9.83
2018-02-04T13:56:16.434Z,11.03
2018-02-04T13:58:44.353Z,10.43
2018-02-04T14:01:12.038Z,9.40
2018-02-04T14:03:39.592Z,8.63
2018-02-04T14:06:07.138Z,8.20
2018-02-04T14:08:34.731Z,8.50
2018-02-04T14:11:02.337Z,8.03
2018-02-04T14:13:30.666Z,8.20
2018-02-04T14:15:58.287Z,7.87
2018-02-04T14:18:25.901Z,10.67
2018-02-04T14:20:53.498Z,8.23
2018-02-04T14:23:21.822Z,8.33
2018-02-04T14:25:49.428Z,7.27
2018-02-04T14:28:17.809Z,7.23
2018-02-04T14:30:46.138Z,7.53
2018-02-04T14:33:13.828Z,7.23
2018-02-04T14:35:42.149Z,6.80
2018-02-04T14:38:09.734Z,6.60
2018-02-04T14:40:37.398Z,6.73
2018-02-04T14:43:05.077Z,7.10
2018-02-04T14:45:32.722Z,6.77
2018-02-04T14:48:00.313Z,6.60
2018-02-04T14:50:28.644Z,7.97
2018-02-04T14:52:56.228Z,8.33
2018-02-04T14:55:23.794Z,8.60
2018-02-04T14:57:52.126Z,9.37
2018-02-04T15:00:19.724Z,8.00
2018-02-04T15:02:47.374Z,7.47
2018-02-04T15:05:14.942Z,7.03
2018-02-04T15:07:42.506Z,6.70
2018-02-04T15:10:10.904Z,6.57
2018-02-04T15:12:38.520Z,7.20
2018-02-04T15:15:06.908Z,8.47
2018-02-04T15:17:34.500Z,6.80
2018-02-04T15:20:02.148Z,6.57
2018-02-04T15:22:30.498Z,7.60
2018-02-04T15:24:59.662Z,7.67
2018-02-04T15:27:27.227Z,7.97
2018-02-04T15:29:54.793Z,7.33
2018-02-04T15:32:22.346Z,7.20
2018-02-04T15:34:50.026Z,7.20
2018-02-04T15:37:17.578Z,7.40
2018-02-04T15:39:45.152Z,6.90
2018-02-04T15:42:12.722Z,8.23
2018-02-04T15:44:41.072Z,7.13
2018-02-04T15:47:08.643Z,6.90
2018-02-04T15:49:37.032Z,6.67
2018-02-04T15:52:05.485Z,8.43
2018-02-04T15:54:33.079Z,7.20
2018-02-04T15:57:01.537Z,6.80
2018-02-04T15:59:29.186Z,6.80
2018-02-04T16:01:56.759Z,8.10
2018-02-04T16:04:25.107Z,6.83
2018-02-04T16:06:52.690Z,7.03
2018-02-04T16:09:20.275Z,8.03
2018-02-04T16:11:47.853Z,8.70
2018-02-04T16:14:15.412Z,7.57
2018-02-04T16:16:42.986Z,8.63
2018-02-04T16:19:10.545Z,9.73
2018-02-04T16:21:38.338Z,10.40
2018-02-04T16:24:05.902Z,12.00
2018-02-04T16:26:33.492Z,11.63
2018-02-04T16:29:01.075Z,12.57
2018-02-04T16:31:28.673Z,11.03
2018-02-04T16:33:56.265Z,12.30
2018-02-04T16:36:23.915Z,13.17
2018-02-04T16:38:52.256Z,14.67
2018-02-04T16:41:19.875Z,14.20
2018-02-04T16:43:47.450Z,14.50
2018-02-04T16:46:15.028Z,15.43
2018-02-04T16:48:42.620Z,15.70
2018-02-04T16:51:10.970Z,15.03
2018-02-04T16:53:38.557Z,16.97
2018-02-04T16:56:06.951Z,16.67
2018-02-04T16:58:34.567Z,16.17
2018-02-04T17:01:02.240Z,16.63
2018-02-04T17:03:29.826Z,18.50
2018-02-04T17:05:57.439Z,18.17
2018-02-04T17:08:25.059Z,15.50
2018-02-04T17:10:52.734Z,17.20
2018-02-04T17:13:20.304Z,16.03
2018-02-04T17:15:47.885Z,17.70
2018-02-04T17:18:15.559Z,19.20
2018-02-04T17:20:43.130Z,16.53
2018-02-04T17:23:11.473Z,19.40
2018-02-04T17:25:40.128Z,16.83
2018-02-04T17:28:07.710Z,16.83
2018-02-04T17:30:35.282Z,18.40
2018-02-04T17:33:02.919Z,15.00
2018-02-04T17:35:30.497Z,17.47
2018-02-04T17:37:58.084Z,17.97
2018-02-04T17:40:26.464Z,17.23
2018-02-04T17:42:54.070Z,17.33
2018-02-04T17:45:21.660Z,20.17
2018-02-04T17:47:49.252Z,18.13
2018-02-04T17:50:16.834Z,19.50
2018-02-04T17:52:44.402Z,19.00
2018-02-04T17:55:12.007Z,19.73
2018-02-04T17:57:40.354Z,19.07
2018-02-04T18:00:08.782Z,19.40
2018-02-04T18:02:36.347Z,21.50
2018-02-04T18:05:03.939Z,22.10
2018-02-04T18:07:31.545Z,23.73
2018-02-04T18:09:59.900Z,22.83
2018-02-04T18:12:27.467Z,20.53
2018-02-04T18:14:55.844Z,19.40
2018-02-04T18:17:24.182Z,24.40
2018-02-04T18:19:51.783Z,20.93
2018-02-04T18:22:20.161Z,18.80
2018-02-04T18:24:48.525Z,22.50
2018-02-04T18:27:16.108Z,20.13
2018-02-04T18:29:43.707Z,21.07
2018-02-04T18:32:11.459Z,21.60
2018-02-04T18:34:39.130Z,21.30
2018-02-04T18:37:06.725Z,20.43
2018-02-04T18:39:34.321Z,19.90
2018-02-04T18:42:01.945Z,22.83
2018-02-04T18:44:30.331Z,23.97
2018-02-04T18:46:57.984Z,24.07
2018-02-04T18:49:26.419Z,24.70
2018-02-04T18:51:54.030Z,22.47
2018-02-04T18:54:22.358Z,24.07
2018-02-04T18:56:50.008Z,33.50
2018-02-04T18:59:17.565Z,24.83
2018-02-04T19:01:45.162Z,21.63
2018-02-04T19:04:12.761Z,25.27
2018-02-04T19:06:40.375Z,23.10
2018-02-04T19:09:07.938Z,21.73
2018-02-04T19:11:35.567Z,24.60
2018-02-04T19:14:03.252Z,23.47
2018-02-04T19:16:31.604Z,23.27
2018-02-04T19:18:59.210Z,20.93
2018-02-04T19:21:27.657Z,22.40
2018-02-04T19:23:55.246Z,24.13
2018-02-04T19:26:23.604Z,21.10
2018-02-04T19:28:51.970Z,24.93
2018-02-04T19:31:19.561Z,23.77
2018-02-04T19:33:48.145Z,22.93
2018-02-04T19:36:16.505Z,21.20
2018-02-04T19:38:44.081Z,23.17
2018-02-04T19:41:12.429Z,22.80
2018-02-04T19:43:40.024Z,22.87
2018-02-04T19:46:07.659Z,19.50
2018-02-04T19:48:35.450Z,25.73
2018-02-04T19:51:03.095Z,21.73
2018-02-04T19:53:31.447Z,25.93
2018-02-04T19:55:59.229Z,22.70
2018-02-04T19:58:27.571Z,21.27
2018-02-04T20:00:55.130Z,23.87
2018-02-04T20:03:22.741Z,22.00
2018-02-04T20:05:51.162Z,22.20
2018-02-04T20:08:18.727Z,20.73
2018-02-04T20:10:46.301Z,21.00
2018-02-04T20:13:13.980Z,21.33
2018-02-04T20:15:42.310Z,20.10
2018-02-04T20:18:09.968Z,22.27
2018-02-04T20:20:37.579Z,23.10
2018-02-04T20:23:05.918Z,20.47
2018-02-04T20:25:33.506Z,21.13
2018-02-04T20:28:01.884Z,19.97
2018-02-04T20:30:30.260Z,22.37
2018-02-04T20:33:10.520Z,21.07
2018-02-04T20:35:38.866Z,21.70
2018-02-04T20:38:06.432Z,22.50
2018-02-04T20:40:34.062Z,23.20
2018-02-04T20:43:01.810Z,24.10
2018-02-04T20:45:29.535Z,27.43
2018-02-04T20:47:58.014Z,26.87
2018-02-04T20:50:25.622Z,25.27
2018-02-04T20:52:53.219Z,25.43
2018-02-04T20:55:20.886Z,25.47
2018-02-04T20:57:48.564Z,28.40
2018-02-04T21:00:16.948Z,28.57
2018-02-04T21:02:45.331Z,28.67
2018-02-04T21:05:12.906Z,25.43
2018-02-04T21:07:40.496Z,27.70
2018-02-04T21:10:08.198Z,31.30
2018-02-04T21:12:36.542Z,29.00
2018-02-04T21:15:04.110Z,27.00
2018-02-04T21:17:31.707Z,27.97
2018-02-04T21:19:59.286Z,25.87
2018-02-04T21:22:27.683Z,28.63
2018-02-04T21:24:55.269Z,30.73
2018-02-04T21:27:23.640Z,27.60
2018-02-04T21:29:51.253Z,30.50
2018-02-04T21:32:18.842Z,34.23
2018-02-04T21:34:46.426Z,30.90
2018-02-04T21:37:14.767Z,29.20
2018-02-04T21:39:42.341Z,29.27
2018-02-04T21:42:10.028Z,27.83
2018-02-04T21:44:38.408Z,32.63
2018-02-04T21:47:06.757Z,31.70
2018-02-04T21:49:34.588Z,31.50
2018-02-04T21:52:02.166Z,29.50
2018-02-04T21:54:29.787Z,31.47
2018-02-04T21:56:57.364Z,29.07
2018-02-04T21:59:24.970Z,30.67
2018-02-04T22:01:52.558Z,28.57
2018-02-04T22:04:20.162Z,29.90
2018-02-04T22:06:47.767Z,29.97
2018-02-04T22:09:15.347Z,30.43
2018-02-04T22:11:42.933Z,25.73
2018-02-04T22:14:10.522Z,28.53
2018-02-04T22:16:38.089Z,30.00
2018-02-04T22:19:06.468Z,29.43
2018-02-04T22:21:34.812Z,31.43
2018-02-04T22:24:02.373Z,28.70
2018-02-04T22:26:29.954Z,33.60
2018-02-04T22:28:58.328Z,27.47
2018-02-04T22:31:26.712Z,31.53
2018-02-04T22:33:55.073Z,30.60
2018-02-04T22:36:22.682Z,28.97
2018-02-04T22:38:50.272Z,30.93
2018-02-04T22:41:17.840Z,35.37
2018-02-04T22:43:45.519Z,31.17
2018-02-04T22:46:13.178Z,29.43
2018-02-04T22:48:41.530Z,33.00
2018-02-04T22:51:09.202Z,29.43
2018-02-04T22:53:36.870Z,37.77
2018-02-04T22:56:04.479Z,30.47
2018-02-04T22:58:32.079Z,41.27
2018-02-04T23:00:59.752Z,36.03
2018-02-04T23:03:27.334Z,35.90
2018-02-04T23:05:54.920Z,37.60
2018-02-04T23:08:22.508Z,35.33
2018-02-04T23:10:50.087Z,40.70
2018-02-04T23:13:17.653Z,36.40
2018-02-04T23:15:46.028Z,42.07
2018-02-04T23:18:14.507Z,36.83
2018-02-04T23:20:42.864Z,33.63
2018-02-04T23:23:10.432Z,33.30
2018-02-04T23:25:38.067Z,32.00
2018-02-04T23:28:05.657Z,38.23
2018-02-04T23:30:34.053Z,34.97
2018-02-04T23:33:02.510Z,35.17
2018-02-04T23:35:30.867Z,34.10
2018-02-04T23:38:09.870Z,35.00
2018-02-04T23:40:37.602Z,34.83
2018-02-04T23:43:05.196Z,30.33
2018-02-04T23:45:32.846Z,32.43
2018-02-04T23:48:00.450Z,32.70
2018-02-04T23:50:28.077Z,36.17
2018-02-04T23:52:55.674Z,40.23
2018-02-04T23:55:24.742Z,37.27
2018-02-04T23:57:52.938Z,35.13
